Time;durP1;ratioP1;P1;durP2;ratioP2;P2;SDS_P1;SDS_P2;PMS_P1;PMS_P2;Temp;Humidity;BMP_temperature;BMP_pressure;BME280_temperature;BME280_humidity;BME280_pressure;Samples;Min_cycle;Max_cycle;Signal;HPM_P1;HPM_P2
2023/07/06 00:00:14;;;;;;;;;;;10.40;99.90;;;;;;6303497;22;19907;-89
2023/07/06 00:02:39;;;;;;;;;;;10.30;99.90;;;;;;6303927;22;19998;-89
2023/07/06 00:05:05;;;;;;;;;;;10.20;99.90;;;;;;6251664;22;19908;-88
2023/07/06 00:07:31;;;;;;;;;;;10.20;99.90;;;;;;6276959;22;19986;-89
2023/07/06 00:09:56;;;;;;;;;;;10.20;99.90;;;;;;6252004;22;19977;-89
2023/07/06 00:12:23;;;;;;;;;;;10.20;99.90;;;;;;6277620;22;20341;-88
2023/07/06 00:14:50;;;;;;;;;;;10.20;99.90;;;;;;6277112;22;19960;-89
2023/07/06 00:17:16;;;;;;;;;;;10.20;99.90;;;;;;6279220;22;19934;-89
2023/07/06 00:19:42;;;;;;;;;;;10.10;99.90;;;;;;6279109;22;19926;-89
2023/07/06 00:22:09;;;;;;;;;;;10.10;99.90;;;;;;6278608;22;19969;-89
2023/07/06 00:24:35;;;;;;;;;;;10.10;99.90;;;;;;6279205;22;20315;-88
2023/07/06 00:27:01;;;;;;;;;;;10.10;99.90;;;;;;6279247;22;19907;-88
2023/07/06 00:29:33;;;;;;;;;;;10.00;99.90;;;;;;6278994;22;19915;-88
2023/07/06 00:32:26;;;;;;;;;;;9.90;99.90;;;;;;6279222;22;19990;-89
2023/07/06 00:34:59;;;;;;;;;;;9.80;99.90;;;;;;6278769;22;19907;-89
2023/07/06 00:37:26;;;;;;;;;;;9.80;99.90;;;;;;6278386;22;19907;-88
2023/07/06 00:39:52;;;;;;;;;;;9.70;99.90;;;;;;6279950;22;20350;-88
2023/07/06 00:42:19;;;;;;;;;;;9.80;99.90;;;;;;6278926;22;19915;-90
2023/07/06 00:44:48;;;;;;;;;;;9.90;99.90;;;;;;6278719;22;20010;-88
2023/07/06 00:47:14;;;;;;;;;;;9.90;99.90;;;;;;6253339;22;20307;-89
2023/07/06 00:49:40;;;;;;;;;;;9.80;99.90;;;;;;6278856;22;19945;-89
2023/07/06 00:52:07;;;;;;;;;;;9.90;99.90;;;;;;6278693;22;19907;-89
2023/07/06 00:54:35;;;;;;;;;;;9.90;99.90;;;;;;6278844;22;20037;-88
2023/07/06 00:57:02;;;;;;;;;;;9.80;99.90;;;;;;6278337;22;19911;-88
2023/07/06 00:59:30;;;;;;;;;;;9.80;99.90;;;;;;6278445;22;19949;-88
2023/07/06 01:01:59;;;;;;;;;;;9.70;99.90;;;;;;6279699;22;19990;-89
2023/07/06 01:04:26;;;;;;;;;;;9.70;99.90;;;;;;6278874;22;19914;-89
2023/07/06 01:10:20;;;;;;;;;;;9.80;99.90;;;;;;6280915;22;19969;-89
2023/07/06 01:12:46;;;;;;;;;;;9.70;99.90;;;;;;6253143;22;19907;-89
2023/07/06 01:15:16;;;;;;;;;;;9.60;99.90;;;;;;6279149;22;20006;-88
2023/07/06 01:18:10;;;;;;;;;;;9.50;99.90;;;;;;6278853;22;20005;-88
2023/07/06 01:20:42;;;;;;;;;;;9.60;99.90;;;;;;6278935;22;19913;-89
2023/07/06 01:23:13;;;;;;;;;;;9.60;99.90;;;;;;6253711;22;19908;-90
2023/07/06 01:25:45;;;;;;;;;;;9.60;99.90;;;;;;6266627;22;19903;-89
2023/07/06 01:28:29;;;;;;;;;;;9.60;99.90;;;;;;6305033;22;19915;-88
2023/07/06 01:30:55;;;;;;;;;;;9.50;99.90;;;;;;6280607;22;19896;-88
2023/07/06 01:33:35;;;;;;;;;;;9.50;99.90;;;;;;6279620;22;19911;-90
2023/07/06 01:36:10;;;;;;;;;;;9.40;99.90;;;;;;6283773;22;19907;-89
2023/07/06 01:38:37;;;;;;;;;;;9.50;99.90;;;;;;6281598;22;19961;-89
2023/07/06 01:41:06;;;;;;;;;;;9.50;99.90;;;;;;6279450;22;19914;-89
2023/07/06 01:43:32;;;;;;;;;;;9.40;99.90;;;;;;6279155;22;19914;-88
2023/07/06 01:45:58;;;;;;;;;;;9.40;99.90;;;;;;6278395;22;19907;-88
2023/07/06 01:48:24;;;;;;;;;;;9.40;99.90;;;;;;6253773;22;20010;-89
2023/07/06 01:51:08;;;;;;;;;;;9.40;99.90;;;;;;6278796;22;19959;-88
2023/07/06 01:53:38;;;;;;;;;;;9.30;99.90;;;;;;6278307;22;19911;-88
2023/07/06 01:56:05;;;;;;;;;;;9.30;99.90;;;;;;6278484;22;19957;-89
2023/07/06 01:58:37;;;;;;;;;;;9.30;99.90;;;;;;6277665;22;19918;-88
2023/07/06 02:01:09;;;;;;;;;;;9.30;99.90;;;;;;6278063;22;19907;-89
2023/07/06 02:03:38;;;;;;;;;;;9.20;99.90;;;;;;6252713;22;19907;-89
2023/07/06 02:06:07;;;;;;;;;;;9.20;99.90;;;;;;6278382;22;19907;-88
2023/07/06 02:08:33;;;;;;;;;;;9.10;99.90;;;;;;6278222;22;19914;-90
2023/07/06 02:11:01;;;;;;;;;;;9.10;99.90;;;;;;6279004;22;20323;-89
2023/07/06 02:13:27;;;;;;;;;;;9.10;99.90;;;;;;6278593;22;19957;-90
2023/07/06 02:15:52;;;;;;;;;;;9.20;99.90;;;;;;6278377;22;19915;-88
2023/07/06 02:18:19;;;;;;;;;;;9.10;99.90;;;;;;6252562;22;20312;-88
2023/07/06 02:20:47;;;;;;;;;;;9.20;99.90;;;;;;6278080;22;20337;-89
2023/07/06 02:23:13;;;;;;;;;;;9.20;99.90;;;;;;6277994;22;20029;-87
2023/07/06 02:25:41;;;;;;;;;;;9.20;99.90;;;;;;6252791;22;19961;-88
2023/07/06 02:28:08;;;;;;;;;;;9.20;99.90;;;;;;6278187;22;19915;-89
2023/07/06 02:30:58;;;;;;;;;;;9.30;99.90;;;;;;6278089;22;20246;-89
2023/07/06 02:33:30;;;;;;;;;;;9.10;99.90;;;;;;6279520;22;19907;-88
2023/07/06 02:35:56;;;;;;;;;;;9.10;99.90;;;;;;6279021;22;19957;-87
2023/07/06 02:38:21;;;;;;;;;;;9.00;99.90;;;;;;6252128;22;19915;-89
2023/07/06 02:40:48;;;;;;;;;;;9.10;99.90;;;;;;6252206;22;20323;-89
2023/07/06 02:43:14;;;;;;;;;;;9.10;99.90;;;;;;6277949;22;19907;-89
2023/07/06 02:45:40;;;;;;;;;;;9.10;99.90;;;;;;6277954;22;19907;-88
2023/07/06 02:48:05;;;;;;;;;;;9.10;99.90;;;;;;6278200;22;20301;-89
2023/07/06 02:50:32;;;;;;;;;;;9.10;99.90;;;;;;6253232;22;19973;-87
2023/07/06 02:52:58;;;;;;;;;;;9.00;99.90;;;;;;6277577;22;19930;-89
2023/07/06 02:55:26;;;;;;;;;;;9.10;99.90;;;;;;6253106;22;19908;-89
2023/07/06 02:57:52;;;;;;;;;;;9.10;99.90;;;;;;6277736;22;20385;-88
2023/07/06 03:00:17;;;;;;;;;;;9.00;99.90;;;;;;6251871;22;19908;-88
2023/07/06 03:02:44;;;;;;;;;;;9.00;99.90;;;;;;6277359;22;19907;-89
2023/07/06 03:05:10;;;;;;;;;;;8.90;99.90;;;;;;6277405;22;19904;-89
2023/07/06 03:07:35;;;;;;;;;;;8.90;99.90;;;;;;6278145;22;19933;-89
2023/07/06 03:10:02;;;;;;;;;;;8.90;99.90;;;;;;6251781;22;19911;-88
2023/07/06 03:12:30;;;;;;;;;;;8.90;99.90;;;;;;6277809;22;19907;-89
2023/07/06 03:15:05;;;;;;;;;;;8.90;99.90;;;;;;6303849;22;20215;-88
2023/07/06 03:17:31;;;;;;;;;;;8.90;99.90;;;;;;6277313;22;19918;-89
2023/07/06 03:19:56;;;;;;;;;;;9.00;99.90;;;;;;6252157;22;19942;-89
2023/07/06 03:22:22;;;;;;;;;;;9.00;99.90;;;;;;6251847;22;19918;-88
2023/07/06 03:24:48;;;;;;;;;;;9.00;99.90;;;;;;6277329;22;20274;-89
2023/07/06 03:27:13;;;;;;;;;;;9.00;99.90;;;;;;6250868;22;19914;-85
2023/07/06 03:29:40;;;;;;;;;;;9.00;99.90;;;;;;6250132;22;19907;-86
2023/07/06 03:32:06;;;;;;;;;;;9.00;99.90;;;;;;6275957;22;19908;-86
2023/07/06 03:34:38;;;;;;;;;;;9.00;99.90;;;;;;6276075;22;19907;-86
2023/07/06 03:37:04;;;;;;;;;;;9.00;99.90;;;;;;6275951;22;19907;-86
2023/07/06 03:39:30;;;;;;;;;;;9.00;99.90;;;;;;6275876;22;19911;-86
2023/07/06 03:41:57;;;;;;;;;;;9.10;99.90;;;;;;6276337;22;20290;-86
2023/07/06 03:44:24;;;;;;;;;;;9.10;99.90;;;;;;6301627;22;19933;-86
2023/07/06 03:46:58;;;;;;;;;;;9.10;99.90;;;;;;6275764;22;19908;-86
2023/07/06 03:49:23;;;;;;;;;;;9.20;99.90;;;;;;6277667;22;20306;-85
2023/07/06 03:52:22;;;;;;;;;;;9.20;99.90;;;;;;6252154;22;19907;-85
2023/07/06 03:54:47;;;;;;;;;;;9.30;99.90;;;;;;6303975;22;19907;-86
2023/07/06 03:57:16;;;;;;;;;;;9.30;99.90;;;;;;6252990;22;19907;-85
2023/07/06 03:59:42;;;;;;;;;;;9.40;99.90;;;;;;6277923;22;19911;-86
2023/07/06 04:02:07;;;;;;;;;;;9.50;99.90;;;;;;6278726;22;19915;-85
2023/07/06 04:04:33;;;;;;;;;;;9.50;99.90;;;;;;6277742;22;19934;-85
2023/07/06 04:06:59;;;;;;;;;;;9.60;99.90;;;;;;6303521;22;19953;-86
2023/07/06 04:09:25;;;;;;;;;;;9.60;99.90;;;;;;6303775;22;19907;-85
2023/07/06 04:11:52;;;;;;;;;;;9.70;99.90;;;;;;6277702;22;20274;-85
2023/07/06 04:14:21;;;;;;;;;;;9.70;99.90;;;;;;6277756;22;19931;-86
2023/07/06 04:16:47;;;;;;;;;;;9.80;99.90;;;;;;6277546;22;19934;-85
2023/07/06 04:19:12;;;;;;;;;;;9.80;99.90;;;;;;6277435;22;19915;-86
2023/07/06 04:21:38;;;;;;;;;;;9.90;99.90;;;;;;6252200;22;19911;-86
2023/07/06 04:24:04;;;;;;;;;;;10.10;99.90;;;;;;6252550;22;19934;-85
2023/07/06 04:26:29;;;;;;;;;;;10.10;99.90;;;;;;6278299;22;19915;-85
2023/07/06 04:28:55;;;;;;;;;;;10.20;99.90;;;;;;6252624;22;20258;-86
2023/07/06 04:31:20;;;;;;;;;;;10.30;99.90;;;;;;6278024;22;19915;-86
2023/07/06 04:33:46;;;;;;;;;;;10.30;99.90;;;;;;6252293;22;19939;-85
2023/07/06 04:36:21;;;;;;;;;;;10.40;99.90;;;;;;6251545;22;19912;-86
2023/07/06 04:38:47;;;;;;;;;;;10.50;99.90;;;;;;6277343;22;19957;-86
2023/07/06 04:41:13;;;;;;;;;;;10.60;99.90;;;;;;6251811;22;20257;-86
2023/07/06 04:43:39;;;;;;;;;;;10.70;99.90;;;;;;6277445;22;19908;-86
2023/07/06 04:46:05;;;;;;;;;;;10.80;99.90;;;;;;6302965;22;19913;-86
2023/07/06 04:48:33;;;;;;;;;;;10.90;99.90;;;;;;6277012;22;19938;-86
2023/07/06 04:50:59;;;;;;;;;;;11.00;99.90;;;;;;6277543;22;19914;-86
2023/07/06 04:56:55;;;;;;;;;;;11.30;99.90;;;;;;6279042;22;19918;-86
2023/07/06 04:59:21;;;;;;;;;;;11.50;99.90;;;;;;6276905;22;19966;-86
2023/07/06 05:02:12;;;;;;;;;;;11.50;99.90;;;;;;6276853;22;20227;-86
2023/07/06 05:04:40;;;;;;;;;;;11.60;99.90;;;;;;6276947;22;19907;-86
2023/07/06 05:07:06;;;;;;;;;;;11.70;99.90;;;;;;6277068;22;20330;-86
2023/07/06 05:09:32;;;;;;;;;;;11.90;99.90;;;;;;6276914;22;20258;-86
2023/07/06 05:11:58;;;;;;;;;;;12.00;99.90;;;;;;6277115;22;19907;-86
2023/07/06 05:14:23;;;;;;;;;;;12.30;99.90;;;;;;6276822;22;19990;-86
2023/07/06 05:16:49;;;;;;;;;;;12.50;99.90;;;;;;6276723;22;19939;-86
2023/07/06 05:19:27;;;;;;;;;;;12.60;99.90;;;;;;6277002;22;19966;-86
2023/07/06 05:21:55;;;;;;;;;;;12.80;99.90;;;;;;6276792;22;20290;-86
2023/07/06 05:24:21;;;;;;;;;;;13.00;99.90;;;;;;6277078;22;19911;-87
2023/07/06 05:26:47;;;;;;;;;;;13.20;99.90;;;;;;6276727;22;20215;-86
2023/07/06 05:29:12;;;;;;;;;;;13.30;99.90;;;;;;6276950;22;19914;-86
2023/07/06 05:31:38;;;;;;;;;;;13.50;99.90;;;;;;6251232;22;19911;-86
2023/07/06 05:34:03;;;;;;;;;;;13.70;99.90;;;;;;6276983;22;19938;-86
2023/07/06 05:36:44;;;;;;;;;;;13.90;99.90;;;;;;6251145;22;19908;-86
2023/07/06 05:39:10;;;;;;;;;;;14.10;99.90;;;;;;6250388;22;20315;-84
2023/07/06 05:41:36;;;;;;;;;;;14.30;99.90;;;;;;6250615;22;19933;-86
2023/07/06 05:44:02;;;;;;;;;;;14.40;99.90;;;;;;6276772;22;20279;-87
2023/07/06 05:46:27;;;;;;;;;;;14.50;99.90;;;;;;6276864;22;19907;-86
2023/07/06 05:48:53;;;;;;;;;;;14.60;99.90;;;;;;6276347;22;20265;-86
2023/07/06 05:51:19;;;;;;;;;;;14.70;99.90;;;;;;6276627;22;19932;-86
2023/07/06 05:53:45;;;;;;;;;;;14.80;99.90;;;;;;6276860;22;19934;-86
2023/07/06 05:56:11;;;;;;;;;;;14.90;99.90;;;;;;6276135;22;20572;-86
2023/07/06 06:02:05;;;;;;;;;;;14.90;99.90;;;;;;6277959;22;19914;-86
2023/07/06 06:04:31;;;;;;;;;;;15.00;99.90;;;;;;6276423;22;19927;-87
2023/07/06 06:06:59;;;;;;;;;;;15.10;99.90;;;;;;6276252;22;19907;-87
2023/07/06 06:09:25;;;;;;;;;;;15.10;99.90;;;;;;6276007;22;19914;-87
2023/07/06 06:11:51;;;;;;;;;;;15.20;99.90;;;;;;6275792;22;19910;-86
2023/07/06 06:14:17;;;;;;;;;;;15.30;99.90;;;;;;6275669;22;20369;-88
2023/07/06 06:16:42;;;;;;;;;;;15.30;99.90;;;;;;6275819;22;19978;-87
2023/07/06 06:19:08;;;;;;;;;;;15.40;99.90;;;;;;6250429;22;19911;-88
2023/07/06 06:21:34;;;;;;;;;;;15.50;99.90;;;;;;6276484;22;20634;-87
2023/07/06 06:24:01;;;;;;;;;;;15.60;99.90;;;;;;6275981;22;19915;-87
2023/07/06 06:26:27;;;;;;;;;;;15.70;99.90;;;;;;6275912;22;19908;-87
2023/07/06 06:28:52;;;;;;;;;;;15.80;99.90;;;;;;6301699;22;19911;-86
2023/07/06 06:31:18;;;;;;;;;;;15.80;99.90;;;;;;6250608;22;19907;-86
2023/07/06 06:33:46;;;;;;;;;;;15.90;99.90;;;;;;6277320;22;19907;-87
2023/07/06 06:36:13;;;;;;;;;;;15.90;99.90;;;;;;6276277;22;19961;-87
2023/07/06 06:38:39;;;;;;;;;;;15.90;99.90;;;;;;6275812;22;20211;-87
2023/07/06 06:41:10;;;;;;;;;;;16.00;99.90;;;;;;6275985;22;19907;-87
2023/07/06 06:43:40;;;;;;;;;;;16.10;99.90;;;;;;6276494;22;19911;-87
2023/07/06 06:46:06;;;;;;;;;;;16.10;99.90;;;;;;6276689;22;19907;-87
2023/07/06 06:48:32;;;;;;;;;;;16.10;99.90;;;;;;6275961;22;19915;-87
2023/07/06 06:50:58;;;;;;;;;;;16.20;99.90;;;;;;6276523;22;19988;-87
2023/07/06 06:53:24;;;;;;;;;;;16.30;99.90;;;;;;6302024;22;19914;-87
2023/07/06 06:55:50;;;;;;;;;;;16.40;99.90;;;;;;6276067;22;19908;-87
2023/07/06 06:58:16;;;;;;;;;;;16.40;99.90;;;;;;6276299;22;19908;-88
2023/07/06 07:00:41;;;;;;;;;;;16.40;99.90;;;;;;6276358;22;19915;-87
2023/07/06 07:03:11;;;;;;;;;;;16.40;99.90;;;;;;6276329;22;19907;-87
2023/07/06 07:05:37;;;;;;;;;;;16.50;99.90;;;;;;6275921;22;19963;-87
2023/07/06 07:08:03;;;;;;;;;;;16.50;99.90;;;;;;6276631;22;20333;-87
2023/07/06 07:10:29;;;;;;;;;;;16.50;99.90;;;;;;6250894;22;19907;-85
2023/07/06 07:12:55;;;;;;;;;;;16.60;99.90;;;;;;6276084;22;19942;-85
2023/07/06 07:15:21;;;;;;;;;;;16.70;99.90;;;;;;6276250;22;19953;-85
2023/07/06 07:17:47;;;;;;;;;;;16.80;99.90;;;;;;6276044;22;20354;-85
2023/07/06 07:20:14;;;;;;;;;;;16.90;99.90;;;;;;6276103;22;19907;-85
2023/07/06 07:22:40;;;;;;;;;;;17.40;99.90;;;;;;6275923;22;19911;-86
2023/07/06 07:25:07;;;;;;;;;;;18.70;99.90;;;;;;6275797;22;19903;-85
2023/07/06 07:27:35;;;;;;;;;;;20.20;99.90;;;;;;6301825;22;19911;-85
2023/07/06 07:30:05;;;;;;;;;;;21.40;99.90;;;;;;6276215;22;19914;-86
2023/07/06 07:32:31;;;;;;;;;;;22.40;99.90;;;;;;6276089;22;19907;-86
2023/07/06 07:34:58;;;;;;;;;;;23.10;99.90;;;;;;6276271;22;20304;-86
2023/07/06 07:37:25;;;;;;;;;;;23.40;99.90;;;;;;6275952;22;19907;-86
2023/07/06 07:39:51;;;;;;;;;;;23.70;98.50;;;;;;6275558;22;19938;-86
2023/07/06 07:42:18;;;;;;;;;;;23.50;98.40;;;;;;6276007;22;19907;-85
2023/07/06 07:44:47;;;;;;;;;;;22.70;97.50;;;;;;6275946;22;19907;-87
2023/07/06 07:47:18;;;;;;;;;;;21.40;98.20;;;;;;6275887;22;19918;-86
2023/07/06 07:49:44;;;;;;;;;;;20.30;99.00;;;;;;6275973;22;19907;-85
2023/07/06 07:52:12;;;;;;;;;;;19.30;99.10;;;;;;6276092;22;19907;-85
2023/07/06 07:54:38;;;;;;;;;;;18.90;99.90;;;;;;6275737;22;19908;-85
2023/07/06 07:57:05;;;;;;;;;;;18.60;99.90;;;;;;6301727;22;20287;-85
2023/07/06 07:59:33;;;;;;;;;;;18.40;99.90;;;;;;6275484;22;19950;-85
2023/07/06 08:01:59;;;;;;;;;;;18.30;99.60;;;;;;6276383;22;20330;-85
2023/07/06 08:04:24;;;;;;;;;;;19.20;98.80;;;;;;6275774;22;19907;-85
2023/07/06 08:06:50;;;;;;;;;;;21.30;97.60;;;;;;6275362;22;19907;-85
2023/07/06 08:09:17;;;;;;;;;;;22.90;96.00;;;;;;6275669;22;19993;-85
2023/07/06 08:11:45;;;;;;;;;;;24.20;93.70;;;;;;6275699;22;20342;-85
2023/07/06 08:14:11;;;;;;;;;;;25.00;91.10;;;;;;6275364;22;19956;-85
2023/07/06 08:16:37;;;;;;;;;;;25.10;91.00;;;;;;6275851;22;19982;-86
2023/07/06 08:19:05;;;;;;;;;;;24.80;91.10;;;;;;6301087;22;19914;-85
2023/07/06 08:21:31;;;;;;;;;;;24.80;91.00;;;;;;6301195;22;19908;-86
2023/07/06 08:23:57;;;;;;;;;;;24.70;90.60;;;;;;6275116;22;19914;-86
2023/07/06 08:26:23;;;;;;;;;;;25.00;89.40;;;;;;6275475;22;19912;-86
2023/07/06 08:28:49;;;;;;;;;;;25.70;88.90;;;;;;6275844;22;19908;-86
2023/07/06 08:31:17;;;;;;;;;;;25.80;87.10;;;;;;6275444;22;19907;-86
2023/07/06 08:33:44;;;;;;;;;;;26.30;86.30;;;;;;6275715;22;19907;-85
2023/07/06 08:36:09;;;;;;;;;;;26.90;83.60;;;;;;6275714;22;19949;-86
2023/07/06 08:38:38;;;;;;;;;;;27.00;82.20;;;;;;6251012;22;20559;-86
2023/07/06 08:41:10;;;;;;;;;;;27.00;80.50;;;;;;6277890;22;20344;-85
2023/07/06 08:43:36;;;;;;;;;;;26.80;80.50;;;;;;6251924;22;19907;-86
2023/07/06 08:46:04;;;;;;;;;;;26.80;80.60;;;;;;6277615;22;19903;-86
2023/07/06 08:48:31;;;;;;;;;;;26.90;79.80;;;;;;6277470;22;19907;-86
2023/07/06 08:51:02;;;;;;;;;;;27.40;79.60;;;;;;6277751;22;20310;-85
2023/07/06 08:53:32;;;;;;;;;;;27.10;80.20;;;;;;6277738;22;20372;-86
2023/07/06 08:56:00;;;;;;;;;;;27.00;79.10;;;;;;6277738;22;19977;-86
2023/07/06 08:58:28;;;;;;;;;;;26.70;79.30;;;;;;6277789;22;19911;-86
2023/07/06 09:01:11;;;;;;;;;;;25.50;81.40;;;;;;6277465;22;19918;-86
2023/07/06 09:03:41;;;;;;;;;;;24.90;80.90;;;;;;6251944;22;19982;-86
2023/07/06 09:06:10;;;;;;;;;;;24.80;83.10;;;;;;6303234;22;19907;-86
2023/07/06 09:08:36;;;;;;;;;;;24.90;83.60;;;;;;6277019;22;19915;-85
2023/07/06 09:11:02;;;;;;;;;;;25.50;81.10;;;;;;6276722;22;20384;-85
2023/07/06 09:13:28;;;;;;;;;;;25.90;81.60;;;;;;6277704;22;19908;-86
2023/07/06 09:15:57;;;;;;;;;;;25.20;81.00;;;;;;6277683;22;19911;-86
2023/07/06 09:18:23;;;;;;;;;;;23.60;83.70;;;;;;6276914;22;19921;-86
2023/07/06 09:20:49;;;;;;;;;;;22.20;87.60;;;;;;6277130;22;19908;-86
2023/07/06 09:23:15;;;;;;;;;;;22.10;88.60;;;;;;6276863;22;19961;-86
2023/07/06 09:25:42;;;;;;;;;;;22.40;86.40;;;;;;6276927;22;19911;-85
2023/07/06 09:28:23;;;;;;;;;;;22.10;88.20;;;;;;6276935;22;19982;-85
2023/07/06 09:30:50;;;;;;;;;;;21.70;89.30;;;;;;6276953;22;19907;-86
2023/07/06 09:33:17;;;;;;;;;;;22.60;86.30;;;;;;6277165;22;19907;-86
2023/07/06 09:35:42;;;;;;;;;;;22.30;86.70;;;;;;6276886;22;19911;-86
2023/07/06 09:41:42;;;;;;;;;;;22.70;88.40;;;;;;6278772;22;19922;-86
2023/07/06 09:44:12;;;;;;;;;;;25.30;82.60;;;;;;6302684;22;19907;-86
2023/07/06 09:46:38;;;;;;;;;;;26.60;80.10;;;;;;6278230;22;19915;-87
2023/07/06 09:49:16;;;;;;;;;;;26.20;77.00;;;;;;6276953;22;19942;-87
2023/07/06 09:51:44;;;;;;;;;;;25.40;79.30;;;;;;6276676;22;19914;-87
2023/07/06 09:54:17;;;;;;;;;;;24.10;82.10;;;;;;6277485;22;19911;-87
2023/07/06 09:56:43;;;;;;;;;;;23.20;85.60;;;;;;6276912;22;20319;-86
2023/07/06 09:59:09;;;;;;;;;;;23.60;86.20;;;;;;6277273;22;19918;-87
2023/07/06 10:01:43;;;;;;;;;;;24.70;84.20;;;;;;6303087;22;20323;-87
2023/07/06 10:04:35;;;;;;;;;;;26.20;81.20;;;;;;6276972;22;20315;-88
2023/07/06 10:07:12;;;;;;;;;;;27.40;76.80;;;;;;6251602;22;19915;-87
2023/07/06 10:09:40;;;;;;;;;;;28.40;71.80;;;;;;6251509;22;19915;-87
2023/07/06 10:15:51;;;;;;;;;;;28.10;68.20;;;;;;6278073;22;20330;-87
2023/07/06 10:18:21;;;;;;;;;;;27.30;68.70;;;;;;6276581;22;20203;-87
2023/07/06 10:21:05;;;;;;;;;;;27.70;71.10;;;;;;6251710;22;19907;-87
2023/07/06 10:23:49;;;;;;;;;;;28.20;71.00;;;;;;6276994;22;19911;-87
2023/07/06 10:26:28;;;;;;;;;;;27.40;68.70;;;;;;6251211;22;20254;-86
2023/07/06 10:29:16;;;;;;;;;;;25.90;72.50;;;;;;6276293;22;19949;-86
2023/07/06 10:31:44;;;;;;;;;;;23.80;76.80;;;;;;6276263;22;19915;-86
2023/07/06 10:34:15;;;;;;;;;;;22.40;80.60;;;;;;6250910;22;19978;-86
2023/07/06 10:36:41;;;;;;;;;;;22.10;84.10;;;;;;6250581;22;19907;-87
2023/07/06 10:39:12;;;;;;;;;;;22.60;81.30;;;;;;6276122;22;20323;-87
2023/07/06 10:41:40;;;;;;;;;;;23.30;79.70;;;;;;6276163;22;19907;-87
2023/07/06 10:44:24;;;;;;;;;;;23.50;79.40;;;;;;6276540;22;19903;-87
2023/07/06 10:46:54;;;;;;;;;;;24.40;78.60;;;;;;6276159;22;19907;-87
2023/07/06 10:49:21;;;;;;;;;;;25.50;74.40;;;;;;6276455;22;19908;-87
2023/07/06 10:51:49;;;;;;;;;;;25.00;74.30;;;;;;6276309;22;19949;-87
2023/07/06 10:54:21;;;;;;;;;;;24.60;74.40;;;;;;6276423;22;19914;-87
2023/07/06 10:57:00;;;;;;;;;;;25.40;73.80;;;;;;6276240;22;20250;-86
2023/07/06 10:59:31;;;;;;;;;;;25.00;73.50;;;;;;6275709;22;20344;-87
2023/07/06 11:02:16;;;;;;;;;;;24.50;74.40;;;;;;6276192;22;19964;-87
2023/07/06 11:04:44;;;;;;;;;;;23.80;77.30;;;;;;6276214;22;19914;-87
2023/07/06 11:07:10;;;;;;;;;;;23.20;79.00;;;;;;6276104;22;19907;-86
2023/07/06 11:09:46;;;;;;;;;;;22.70;80.30;;;;;;6276266;22;20349;-87
2023/07/06 11:12:46;;;;;;;;;;;22.60;80.70;;;;;;6276018;22;20389;-87
2023/07/06 11:15:15;;;;;;;;;;;23.00;79.60;;;;;;6275670;22;19911;-86
2023/07/06 11:17:48;;;;;;;;;;;23.10;79.50;;;;;;6250282;22;19918;-87
2023/07/06 11:20:28;;;;;;;;;;;23.10;77.70;;;;;;6277731;22;19911;-86
2023/07/06 11:22:56;;;;;;;;;;;23.20;78.80;;;;;;6275645;22;19907;-87
2023/07/06 11:25:47;;;;;;;;;;;23.80;79.30;;;;;;6275733;22;19907;-87
2023/07/06 11:28:14;;;;;;;;;;;24.60;78.10;;;;;;6275686;22;19907;-87
2023/07/06 11:30:57;;;;;;;;;;;24.80;76.10;;;;;;6275757;22;19907;-87
2023/07/06 11:33:31;;;;;;;;;;;25.10;76.60;;;;;;6260451;22;20840;-87
2023/07/06 11:35:58;;;;;;;;;;;25.80;73.60;;;;;;6275565;22;19907;-88
2023/07/06 11:39:01;;;;;;;;;;;26.10;71.90;;;;;;6275627;22;19911;-87
2023/07/06 11:41:46;;;;;;;;;;;26.80;73.00;;;;;;6250243;22;19914;-88
2023/07/06 11:44:28;;;;;;;;;;;26.90;67.30;;;;;;6275517;22;20235;-87
2023/07/06 11:47:15;;;;;;;;;;;26.70;67.50;;;;;;6250422;22;19938;-87
2023/07/06 11:49:42;;;;;;;;;;;25.90;68.90;;;;;;6275501;22;19907;-87
2023/07/06 11:52:29;;;;;;;;;;;24.70;71.20;;;;;;6301290;22;19982;-86
2023/07/06 11:55:14;;;;;;;;;;;24.00;71.90;;;;;;6275829;22;19943;-87
2023/07/06 11:57:50;;;;;;;;;;;23.50;75.10;;;;;;6275390;22;19935;-87
2023/07/06 12:02:56;;;;;;;;;;;24.80;72.00;;;;;;6277656;22;19935;-86
2023/07/06 12:05:29;;;;;;;;;;;24.80;71.50;;;;;;6276095;22;20387;-87
2023/07/06 12:07:56;;;;;;;;;;;24.20;72.50;;;;;;6276007;22;19915;-86
2023/07/06 12:10:22;;;;;;;;;;;23.90;72.60;;;;;;6275967;22;19905;-87
2023/07/06 12:12:48;;;;;;;;;;;23.70;72.60;;;;;;6277286;22;20401;-87
2023/07/06 12:15:13;;;;;;;;;;;24.00;73.00;;;;;;6277554;22;19930;-87
2023/07/06 12:17:41;;;;;;;;;;;24.60;74.00;;;;;;6277197;22;19911;-86
2023/07/06 12:20:10;;;;;;;;;;;25.00;72.30;;;;;;6277465;22;19907;-86
2023/07/06 12:22:49;;;;;;;;;;;25.50;73.20;;;;;;6277775;22;19908;-87
2023/07/06 12:25:23;;;;;;;;;;;26.10;70.80;;;;;;6277983;22;19907;-88
2023/07/06 12:27:48;;;;;;;;;;;26.60;69.10;;;;;;6277343;22;19931;-86
2023/07/06 12:30:15;;;;;;;;;;;26.00;67.70;;;;;;6252063;22;19910;-86
2023/07/06 12:32:46;;;;;;;;;;;25.00;68.80;;;;;;6277462;22;19907;-87
2023/07/06 12:35:12;;;;;;;;;;;23.90;70.80;;;;;;6277990;22;20306;-86
2023/07/06 12:37:41;;;;;;;;;;;23.20;73.00;;;;;;6277250;22;20377;-87
2023/07/06 12:40:20;;;;;;;;;;;23.90;73.70;;;;;;6303946;22;19912;-87
2023/07/06 12:42:46;;;;;;;;;;;24.60;72.20;;;;;;6277164;22;19911;-87
2023/07/06 12:45:31;;;;;;;;;;;24.80;69.50;;;;;;6277292;22;20000;-88
2023/07/06 12:48:03;;;;;;;;;;;25.70;70.00;;;;;;6303402;22;19986;-87
2023/07/06 12:50:35;;;;;;;;;;;26.80;68.30;;;;;;6277317;22;19908;-88
2023/07/06 12:53:33;;;;;;;;;;;27.30;65.40;;;;;;6303258;22;19911;-88
2023/07/06 12:56:00;;;;;;;;;;;27.50;64.50;;;;;;6243478;22;19907;-87
2023/07/06 12:58:33;;;;;;;;;;;27.90;64.00;;;;;;6277196;22;19960;-89
2023/07/06 13:01:02;;;;;;;;;;;28.10;64.20;;;;;;6277204;22;19915;-88
2023/07/06 13:03:28;;;;;;;;;;;27.90;60.20;;;;;;6251970;22;20382;-87
2023/07/06 13:05:55;;;;;;;;;;;28.30;62.30;;;;;;6276848;22;20318;-88
2023/07/06 13:08:22;;;;;;;;;;;29.10;59.80;;;;;;6276730;22;20375;-89
2023/07/06 13:10:59;;;;;;;;;;;29.80;58.00;;;;;;6276844;22;20323;-88
2023/07/06 13:13:25;;;;;;;;;;;29.90;57.70;;;;;;6251409;22;19907;-88
2023/07/06 13:19:19;;;;;;;;;;;27.20;61.60;;;;;;6278763;22;19918;-88
2023/07/06 13:21:45;;;;;;;;;;;28.00;61.50;;;;;;6276510;22;20319;-87
2023/07/06 13:24:13;;;;;;;;;;;28.30;61.80;;;;;;6276646;22;19930;-87
2023/07/06 13:26:39;;;;;;;;;;;29.00;59.30;;;;;;6276990;22;19907;-87
2023/07/06 13:29:09;;;;;;;;;;;28.70;58.90;;;;;;6303342;22;19907;-88
2023/07/06 13:31:34;;;;;;;;;;;29.10;57.20;;;;;;6277357;22;19907;-88
2023/07/06 13:34:31;;;;;;;;;;;29.80;57.10;;;;;;6278362;22;20337;-87
2023/07/06 13:36:58;;;;;;;;;;;30.50;57.10;;;;;;6303122;22;19957;-89
2023/07/06 13:39:24;;;;;;;;;;;29.70;58.90;;;;;;6276658;22;19911;-88
2023/07/06 13:41:50;;;;;;;;;;;28.00;59.50;;;;;;6277101;22;20295;-87
2023/07/06 13:44:16;;;;;;;;;;;27.00;61.80;;;;;;6251822;22;19911;-86
2023/07/06 13:46:46;;;;;;;;;;;26.60;61.40;;;;;;6251769;22;20350;-87
2023/07/06 13:49:14;;;;;;;;;;;26.10;62.30;;;;;;6276715;22;19986;-87
2023/07/06 13:51:40;;;;;;;;;;;25.80;62.60;;;;;;6276980;22;19989;-87
2023/07/06 13:54:08;;;;;;;;;;;26.10;64.00;;;;;;6277149;22;20204;-87
2023/07/06 13:56:42;;;;;;;;;;;26.10;63.10;;;;;;6276752;22;19961;-87
2023/07/06 13:59:08;;;;;;;;;;;26.90;63.30;;;;;;6276379;22;19914;-87
2023/07/06 14:01:33;;;;;;;;;;;27.50;61.10;;;;;;6276846;22;19910;-88
2023/07/06 14:04:02;;;;;;;;;;;28.30;61.20;;;;;;6278386;22;19913;-89
2023/07/06 14:06:28;;;;;;;;;;;28.80;59.50;;;;;;6276262;22;19911;-88
2023/07/06 14:08:54;;;;;;;;;;;29.60;58.90;;;;;;6251302;22;19994;-87
2023/07/06 14:11:19;;;;;;;;;;;30.00;58.00;;;;;;6251529;22;19914;-88
2023/07/06 14:13:45;;;;;;;;;;;28.90;56.70;;;;;;6251127;22;19908;-88
2023/07/06 14:19:15;;;;;;;;;;;28.10;58.00;;;;;;6302173;22;19957;-88
2023/07/06 14:21:42;;;;;;;;;;;26.90;58.80;;;;;;6276326;22;20212;-87
2023/07/06 14:24:08;;;;;;;;;;;26.50;59.80;;;;;;6276542;22;20234;-87
2023/07/06 14:26:34;;;;;;;;;;;26.90;60.90;;;;;;6276984;22;19914;-87
2023/07/06 14:28:59;;;;;;;;;;;28.00;58.50;;;;;;6250544;22;19938;-88
2023/07/06 14:31:27;;;;;;;;;;;28.40;56.80;;;;;;6277003;22;19914;-88
2023/07/06 14:33:53;;;;;;;;;;;29.50;56.70;;;;;;6277212;22;20321;-87
2023/07/06 14:36:18;;;;;;;;;;;29.60;56.40;;;;;;6250425;22;19907;-88
2023/07/06 14:38:44;;;;;;;;;;;29.70;56.00;;;;;;6250488;22;19907;-87
2023/07/06 14:41:09;;;;;;;;;;;30.40;55.50;;;;;;6250895;22;19907;-87
2023/07/06 14:43:35;;;;;;;;;;;30.60;55.00;;;;;;6251262;22;19942;-87
2023/07/06 14:46:01;;;;;;;;;;;30.20;56.20;;;;;;6276257;22;19907;-87
2023/07/06 14:48:27;;;;;;;;;;;30.20;55.50;;;;;;6276458;22;19904;-87
2023/07/06 14:51:06;;;;;;;;;;;30.40;54.50;;;;;;6250889;22;19911;-87
2023/07/06 14:53:38;;;;;;;;;;;30.80;55.50;;;;;;6276044;22;19956;-88
2023/07/06 14:56:10;;;;;;;;;;;30.50;56.40;;;;;;6276226;22;20591;-87
2023/07/06 14:58:36;;;;;;;;;;;29.50;55.40;;;;;;6250641;22;20354;-88